createdAt,value
2019-02-21T00:00:01.813Z,6.70
2019-02-21T00:02:34.520Z,6.70
2019-02-21T00:05:05.875Z,6.70
2019-02-21T00:07:37.150Z,6.80
2019-02-21T00:10:08.690Z,6.80
2019-02-21T00:12:40.031Z,6.80
2019-02-21T00:15:11.425Z,6.90
2019-02-21T00:17:42.537Z,6.80
2019-02-21T00:20:13.644Z,6.80
2019-02-21T00:22:44.741Z,6.80
2019-02-21T00:25:15.849Z,6.70
2019-02-21T00:27:46.943Z,6.60
2019-02-21T00:30:18.088Z,6.60
2019-02-21T00:32:49.178Z,6.60
2019-02-21T00:35:21.340Z,6.60
2019-02-21T00:37:52.527Z,6.60
2019-02-21T00:40:23.667Z,6.60
2019-02-21T00:42:54.791Z,6.60
2019-02-21T00:45:25.954Z,6.60
2019-02-21T00:47:57.143Z,6.60
2019-02-21T00:50:28.309Z,6.70
2019-02-21T00:52:59.488Z,6.80
2019-02-21T00:55:30.628Z,6.80
2019-02-21T00:58:01.771Z,6.80
2019-02-21T01:00:32.942Z,6.70
2019-02-21T01:03:04.437Z,6.80
2019-02-21T01:05:35.627Z,6.80
2019-02-21T01:08:06.928Z,6.70
2019-02-21T01:10:38.126Z,6.70
2019-02-21T01:13:09.290Z,6.70
2019-02-21T01:15:40.504Z,6.80
2019-02-21T01:18:11.654Z,6.80
2019-02-21T01:20:43.873Z,6.80
2019-02-21T01:23:14.948Z,6.80
2019-02-21T01:25:46.028Z,6.80
2019-02-21T01:28:17.315Z,6.80
2019-02-21T01:30:56.639Z,6.80
2019-02-21T01:33:21.147Z,6.70
2019-02-21T01:35:52.225Z,6.70
2019-02-21T01:38:23.355Z,6.60
2019-02-21T01:40:54.416Z,6.60
2019-02-21T01:43:25.632Z,6.60
2019-02-21T01:45:56.772Z,6.50
2019-02-21T01:48:29.660Z,6.50
2019-02-21T01:51:00.735Z,6.50
2019-02-21T01:53:31.834Z,6.50
2019-02-21T01:56:03.069Z,6.50
2019-02-21T01:58:37.185Z,6.40
2019-02-21T02:01:09.066Z,6.50
2019-02-21T02:03:40.381Z,6.40
2019-02-21T02:06:11.510Z,6.40
2019-02-21T02:08:42.671Z,6.40
2019-02-21T02:11:13.840Z,6.40
2019-02-21T02:13:46.162Z,6.30
2019-02-21T02:16:17.497Z,6.30
2019-02-21T02:18:48.537Z,6.20
2019-02-21T02:21:19.705Z,6.20
2019-02-21T02:23:50.853Z,6.10
2019-02-21T02:26:22.025Z,6.10
2019-02-21T02:28:53.095Z,6.10
2019-02-21T02:31:24.181Z,6.10
2019-02-21T02:33:55.399Z,6.10
2019-02-21T02:36:26.458Z,6.00
2019-02-21T02:38:57.639Z,6.10
2019-02-21T02:41:28.710Z,6.00
2019-02-21T02:43:59.857Z,6.00
2019-02-21T02:46:31.048Z,6.00
2019-02-21T02:49:02.113Z,5.90
2019-02-21T02:51:33.282Z,5.90
2019-02-21T02:54:04.454Z,5.90
2019-02-21T02:56:35.675Z,5.90
2019-02-21T02:59:06.736Z,6.00
2019-02-21T03:01:37.787Z,6.00
2019-02-21T03:04:09.015Z,6.00
2019-02-21T03:06:40.252Z,6.00
2019-02-21T03:09:14.436Z,6.00
2019-02-21T03:11:45.590Z,6.10
2019-02-21T03:14:16.746Z,6.10
2019-02-21T03:16:47.902Z,6.10
2019-02-21T03:19:19.139Z,6.10
2019-02-21T03:21:50.244Z,6.00
2019-02-21T03:24:21.364Z,6.00
2019-02-21T03:26:52.495Z,6.00
2019-02-21T03:29:23.597Z,6.00
2019-02-21T03:31:56.084Z,6.00
2019-02-21T03:34:27.525Z,5.90
2019-02-21T03:36:58.641Z,5.90
2019-02-21T03:39:29.724Z,6.00
2019-02-21T03:42:01.040Z,6.00
2019-02-21T03:44:32.079Z,6.00
2019-02-21T03:47:03.167Z,5.90
2019-02-21T03:49:34.244Z,5.90
2019-02-21T03:52:05.442Z,5.90
2019-02-21T03:54:36.988Z,5.80
2019-02-21T03:57:08.047Z,5.80
2019-02-21T03:59:39.152Z,5.90
2019-02-21T04:02:10.264Z,5.90
2019-02-21T04:04:42.440Z,5.80
2019-02-21T04:07:14.715Z,5.80
2019-02-21T04:09:45.871Z,5.80
2019-02-21T04:12:17.025Z,5.70
2019-02-21T04:14:48.135Z,5.70
2019-02-21T04:17:19.170Z,5.70
2019-02-21T04:19:50.315Z,5.60
2019-02-21T04:22:21.494Z,5.60
2019-02-21T04:24:52.650Z,5.70
2019-02-21T04:27:23.761Z,5.60
2019-02-21T04:29:54.945Z,5.60
2019-02-21T04:32:26.026Z,5.60
2019-02-21T04:34:57.199Z,5.60
2019-02-21T04:37:28.455Z,5.60
2019-02-21T04:39:59.572Z,5.70
2019-02-21T04:42:30.706Z,5.70
2019-02-21T04:45:01.768Z,5.70
2019-02-21T04:47:32.924Z,5.70
2019-02-21T04:50:04.038Z,5.80
2019-02-21T04:52:35.150Z,5.70
2019-02-21T04:55:06.256Z,5.70
2019-02-21T04:57:37.496Z,5.70
2019-02-21T05:00:10.956Z,5.70
2019-02-21T05:02:42.061Z,5.60
2019-02-21T05:05:13.220Z,5.60
2019-02-21T05:07:44.381Z,5.60
2019-02-21T05:10:15.549Z,5.50
2019-02-21T05:12:46.732Z,5.40
2019-02-21T05:15:17.832Z,5.30
2019-02-21T05:17:49.001Z,5.30
2019-02-21T05:20:20.148Z,5.30
2019-02-21T05:22:51.322Z,5.20
2019-02-21T05:25:22.467Z,5.20
2019-02-21T05:28:15.599Z,5.10
2019-02-21T05:30:47.769Z,5.00
2019-02-21T05:33:54.201Z,5.00
2019-02-21T05:36:38.269Z,5.00
2019-02-21T05:39:30.731Z,4.90
2019-02-21T05:42:10.901Z,4.80
2019-02-21T05:45:06.760Z,4.70
2019-02-21T05:47:43.282Z,4.70
2019-02-21T05:50:31.913Z,4.70
2019-02-21T05:53:31.138Z,4.60
2019-02-21T05:56:12.974Z,4.50
2019-02-21T05:58:59.604Z,4.40
2019-02-21T06:02:08.606Z,4.30
2019-02-21T06:05:10.942Z,4.40
2019-02-21T06:08:03.706Z,4.40
2019-02-21T06:10:47.782Z,4.40
2019-02-21T06:13:36.816Z,4.60
2019-02-21T06:16:33.107Z,4.70
2019-02-21T06:19:33.749Z,4.80
2019-02-21T06:22:24.417Z,4.90
2019-02-21T06:25:17.520Z,4.90
2019-02-21T06:27:53.832Z,5.00
2019-02-21T06:30:50.250Z,5.10
2019-02-21T06:33:21.384Z,5.10
2019-02-21T06:35:53.597Z,5.20
2019-02-21T06:38:24.776Z,5.30
2019-02-21T06:40:55.993Z,5.30
2019-02-21T06:43:27.124Z,5.40
2019-02-21T06:45:58.324Z,5.40
2019-02-21T06:48:29.427Z,5.50
2019-02-21T06:51:00.637Z,5.50
2019-02-21T06:53:31.717Z,5.50
2019-02-21T06:56:02.823Z,5.50
2019-02-21T06:58:34.019Z,5.50
2019-02-21T07:01:05.199Z,5.50
2019-02-21T07:03:36.580Z,5.50
2019-02-21T07:06:07.781Z,5.60
2019-02-21T07:08:40.130Z,5.60
2019-02-21T07:11:11.504Z,5.60
2019-02-21T07:13:42.697Z,5.60
2019-02-21T07:16:13.961Z,5.70
2019-02-21T07:18:45.153Z,5.80
2019-02-21T07:21:16.334Z,5.80
2019-02-21T07:23:47.536Z,5.90
2019-02-21T07:26:20.266Z,6.00
2019-02-21T07:28:51.523Z,6.10
2019-02-21T07:31:28.922Z,6.30
2019-02-21T07:33:55.552Z,6.40
2019-02-21T07:36:26.975Z,6.50
2019-02-21T07:39:13.753Z,6.60
2019-02-21T07:41:30.885Z,6.80
2019-02-21T07:44:11.730Z,6.80
2019-02-21T07:46:34.696Z,6.80
2019-02-21T07:49:05.819Z,6.80
2019-02-21T07:51:37.074Z,6.90
2019-02-21T07:54:08.228Z,6.90
2019-02-21T07:56:42.325Z,7.00
2019-02-21T07:59:12.398Z,7.20
2019-02-21T08:01:43.483Z,7.30
2019-02-21T08:04:14.771Z,7.30
2019-02-21T08:06:46.091Z,7.40
2019-02-21T08:09:18.965Z,7.40
2019-02-21T08:11:50.278Z,7.40
2019-02-21T08:14:21.508Z,7.50
2019-02-21T08:16:56.084Z,7.60
2019-02-21T08:19:26.756Z,7.60
2019-02-21T08:22:00.015Z,7.70
2019-02-21T08:24:30.998Z,7.90
2019-02-21T08:27:02.284Z,8.10
2019-02-21T08:29:34.269Z,8.20
2019-02-21T08:32:05.665Z,8.30
2019-02-21T08:34:43.584Z,8.40
2019-02-21T08:37:15.087Z,8.60
2019-02-21T08:39:46.348Z,8.70
2019-02-21T08:42:17.528Z,8.70
2019-02-21T08:44:48.812Z,8.70
2019-02-21T08:47:20.064Z,8.80
2019-02-21T08:49:51.210Z,8.80
2019-02-21T08:52:22.618Z,8.80
2019-02-21T08:55:00.161Z,8.90
2019-02-21T08:57:26.647Z,8.90
2019-02-21T08:59:57.867Z,9.00
2019-02-21T09:02:29.046Z,9.00
2019-02-21T09:05:00.258Z,9.00
2019-02-21T09:07:31.464Z,9.00
2019-02-21T09:10:02.739Z,9.00
2019-02-21T09:12:34.389Z,8.90
2019-02-21T09:15:06.160Z,8.90
2019-02-21T09:17:38.509Z,8.90
2019-02-21T09:20:10.582Z,8.80
2019-02-21T09:22:42.046Z,8.80
2019-02-21T09:25:13.808Z,8.80
2019-02-21T09:27:45.049Z,8.90
2019-02-21T09:30:17.697Z,9.00
2019-02-21T09:32:48.924Z,9.10
2019-02-21T09:35:20.216Z,9.10
2019-02-21T09:37:51.641Z,9.20
2019-02-21T09:40:22.909Z,9.20
2019-02-21T09:42:54.182Z,9.20
2019-02-21T09:45:25.567Z,9.20
2019-02-21T09:48:07.962Z,9.20
2019-02-21T09:50:39.146Z,9.20
2019-02-21T09:53:10.378Z,9.20
2019-02-21T09:55:41.671Z,9.10
2019-02-21T09:58:13.304Z,9.10
2019-02-21T10:00:44.585Z,9.00
2019-02-21T10:03:15.848Z,9.00
2019-02-21T10:05:49.624Z,8.90
2019-02-21T10:08:21.992Z,8.90
2019-02-21T10:10:53.423Z,8.90
2019-02-21T10:13:24.646Z,8.90
2019-02-21T10:15:55.875Z,9.00
2019-02-21T10:18:28.257Z,9.10
2019-02-21T10:20:59.539Z,9.30
2019-02-21T10:23:30.679Z,9.60
2019-02-21T10:26:01.860Z,9.70
2019-02-21T10:28:38.256Z,9.80
2019-02-21T10:31:09.478Z,10.00
2019-02-21T10:33:47.127Z,10.00
2019-02-21T10:36:13.642Z,9.90
2019-02-21T10:38:47.878Z,9.80
2019-02-21T10:41:19.085Z,9.70
2019-02-21T10:43:50.310Z,9.50
2019-02-21T10:46:21.582Z,9.40
2019-02-21T10:48:52.818Z,9.30
2019-02-21T10:51:24.020Z,9.20
2019-02-21T10:53:55.233Z,9.10
2019-02-21T10:56:26.594Z,9.10
2019-02-21T10:58:57.941Z,9.00
2019-02-21T11:01:30.943Z,8.90
2019-02-21T11:04:02.190Z,8.90
2019-02-21T11:06:33.370Z,8.90
2019-02-21T11:09:07.155Z,8.80
2019-02-21T11:11:38.320Z,8.80
2019-02-21T11:14:09.721Z,8.90
2019-02-21T11:16:40.903Z,9.00
2019-02-21T11:19:12.242Z,9.10
2019-02-21T11:21:43.389Z,9.20
2019-02-21T11:24:14.732Z,9.30
2019-02-21T11:26:45.896Z,9.30
2019-02-21T11:29:17.095Z,9.40
2019-02-21T11:31:48.309Z,9.40
2019-02-21T11:34:19.481Z,9.30
2019-02-21T11:36:50.629Z,9.40
2019-02-21T11:39:21.837Z,9.40
2019-02-21T11:41:52.979Z,9.30
2019-02-21T11:44:24.070Z,9.30
2019-02-21T11:46:55.189Z,9.30
2019-02-21T11:49:26.283Z,9.20
2019-02-21T11:51:57.437Z,9.20
2019-02-21T11:54:28.631Z,9.30
2019-02-21T11:56:59.748Z,9.20
2019-02-21T11:59:30.805Z,9.30
2019-02-21T12:02:02.110Z,9.30
2019-02-21T12:04:33.248Z,9.30
2019-02-21T12:07:04.374Z,9.30
2019-02-21T12:09:35.542Z,9.40
2019-02-21T12:12:06.701Z,9.30
2019-02-21T12:14:37.890Z,9.30
2019-02-21T12:17:09.034Z,9.30
2019-02-21T12:19:40.194Z,9.40
2019-02-21T12:22:11.278Z,9.50
2019-02-21T12:24:42.369Z,9.60
2019-02-21T12:27:13.571Z,9.70
2019-02-21T12:29:44.683Z,9.90
2019-02-21T12:32:16.255Z,10.00
2019-02-21T12:34:48.861Z,10.00
2019-02-21T12:37:20.039Z,9.80
2019-02-21T12:39:51.236Z,9.70
2019-02-21T12:42:22.390Z,9.60
2019-02-21T12:44:53.537Z,9.50
2019-02-21T12:47:24.648Z,9.50
2019-02-21T12:49:55.881Z,9.30
2019-02-21T12:52:27.034Z,9.30
2019-02-21T12:54:58.501Z,9.20
2019-02-21T12:57:29.901Z,9.00
2019-02-21T13:00:01.096Z,8.90
2019-02-21T13:02:32.993Z,8.80
2019-02-21T13:05:06.079Z,8.70
2019-02-21T13:07:37.289Z,8.60
2019-02-21T13:10:11.140Z,8.60
2019-02-21T13:12:42.569Z,8.50
2019-02-21T13:15:14.216Z,8.50
2019-02-21T13:17:45.789Z,8.40
2019-02-21T13:20:17.285Z,8.40
2019-02-21T13:22:48.614Z,8.40
2019-02-21T13:25:20.002Z,8.40
2019-02-21T13:27:51.339Z,8.30
2019-02-21T13:30:22.618Z,8.20
2019-02-21T13:32:54.286Z,8.10
2019-02-21T13:35:25.628Z,8.10
2019-02-21T13:37:57.098Z,8.10
2019-02-21T13:40:28.190Z,8.00
2019-02-21T13:42:59.309Z,8.00
2019-02-21T13:45:31.674Z,7.90
2019-02-21T13:48:02.851Z,7.90
2019-02-21T13:50:34.068Z,7.80
2019-02-21T13:53:05.277Z,7.80
2019-02-21T13:55:36.492Z,7.70
2019-02-21T13:58:07.682Z,7.70
2019-02-21T14:00:38.905Z,7.70
2019-02-21T14:03:10.127Z,7.70
2019-02-21T14:05:41.311Z,7.70
2019-02-21T14:08:12.672Z,7.60
2019-02-21T14:10:43.895Z,7.60
2019-02-21T14:13:15.101Z,7.50
2019-02-21T14:15:46.378Z,7.50
2019-02-21T14:18:17.638Z,7.50
2019-02-21T14:20:48.846Z,7.40
2019-02-21T14:23:20.121Z,7.40
2019-02-21T14:25:51.469Z,7.40
2019-02-21T14:28:22.861Z,7.30
2019-02-21T14:30:54.213Z,7.30
2019-02-21T14:33:25.846Z,7.30
2019-02-21T14:35:57.743Z,7.40
2019-02-21T14:38:29.429Z,7.40
2019-02-21T14:41:00.628Z,7.40
2019-02-21T14:43:31.815Z,7.40
2019-02-21T14:46:03.070Z,7.40
2019-02-21T14:48:34.259Z,7.30
2019-02-21T14:51:05.435Z,7.30
2019-02-21T14:53:36.631Z,7.30
2019-02-21T14:56:07.753Z,7.30
2019-02-21T14:58:38.882Z,7.30
2019-02-21T15:01:10.255Z,7.30
2019-02-21T15:03:41.500Z,7.30
2019-02-21T15:06:12.859Z,7.30
2019-02-21T15:08:44.130Z,7.30
2019-02-21T15:11:15.497Z,7.20
2019-02-21T15:13:46.867Z,7.20
2019-02-21T15:16:18.102Z,7.20
2019-02-21T15:18:49.492Z,7.20
2019-02-21T15:21:20.727Z,7.20
2019-02-21T15:23:51.967Z,7.20
2019-02-21T15:26:23.221Z,7.20
2019-02-21T15:28:54.469Z,7.20
2019-02-21T15:31:25.704Z,7.20
2019-02-21T15:33:57.075Z,7.20
2019-02-21T15:36:37.907Z,7.20
2019-02-21T15:39:01.552Z,7.30
2019-02-21T15:41:34.480Z,7.20
2019-02-21T15:44:05.894Z,7.20
2019-02-21T15:46:37.707Z,7.20
2019-02-21T15:49:09.106Z,7.20
2019-02-21T15:51:40.659Z,7.20
2019-02-21T15:54:12.588Z,7.20
2019-02-21T15:56:45.117Z,7.30
2019-02-21T15:59:16.563Z,7.30
2019-02-21T16:01:48.066Z,7.30
2019-02-21T16:04:19.564Z,7.30
2019-02-21T16:06:51.798Z,7.30
2019-02-21T16:09:25.385Z,7.30
2019-02-21T16:11:57.125Z,7.30
2019-02-21T16:14:28.313Z,7.30
2019-02-21T16:16:59.631Z,7.30
2019-02-21T16:19:30.882Z,7.30
2019-02-21T16:22:02.215Z,7.40
2019-02-21T16:24:35.083Z,7.30
2019-02-21T16:27:06.413Z,7.30
2019-02-21T16:29:37.852Z,7.30
2019-02-21T16:32:09.129Z,7.30
2019-02-21T16:34:40.607Z,7.30
2019-02-21T16:37:13.601Z,7.40
2019-02-21T16:39:45.147Z,7.30
2019-02-21T16:42:16.347Z,7.30
2019-02-21T16:44:47.597Z,7.20
2019-02-21T16:47:20.091Z,7.20
2019-02-21T16:49:51.407Z,7.20
2019-02-21T16:52:22.789Z,7.20
2019-02-21T16:54:54.035Z,7.20
2019-02-21T16:57:25.263Z,7.10
2019-02-21T16:59:56.486Z,7.20
2019-02-21T17:02:27.757Z,7.20
2019-02-21T17:04:59.093Z,7.20
2019-02-21T17:07:30.385Z,7.20
2019-02-21T17:10:03.901Z,7.20
2019-02-21T17:12:37.123Z,7.30
2019-02-21T17:15:09.851Z,7.30
2019-02-21T17:17:41.139Z,7.30
2019-02-21T17:20:14.417Z,7.30
2019-02-21T17:22:45.953Z,7.30
2019-02-21T17:25:17.506Z,7.20
2019-02-21T17:27:48.833Z,7.20
2019-02-21T17:30:20.592Z,7.20
2019-02-21T17:32:51.850Z,7.10
2019-02-21T17:35:23.175Z,7.10
2019-02-21T17:37:54.490Z,7.10
2019-02-21T17:40:26.938Z,7.10
2019-02-21T17:42:58.110Z,7.10
2019-02-21T17:45:29.558Z,7.10
2019-02-21T17:48:00.779Z,7.20
2019-02-21T17:50:32.240Z,7.20
2019-02-21T17:53:03.537Z,7.10
2019-02-21T17:55:36.622Z,7.10
2019-02-21T17:58:08.030Z,7.10
2019-02-21T18:00:39.753Z,7.10
2019-02-21T18:03:11.873Z,7.20
2019-02-21T18:05:43.259Z,7.10
2019-02-21T18:08:14.592Z,7.10
2019-02-21T18:10:46.124Z,7.10
2019-02-21T18:13:17.420Z,7.10
2019-02-21T18:15:48.803Z,7.10
2019-02-21T18:18:20.115Z,7.20
2019-02-21T18:20:51.558Z,7.10
2019-02-21T18:23:22.916Z,7.20
2019-02-21T18:25:59.892Z,7.20
2019-02-21T18:28:31.529Z,7.10
2019-02-21T18:31:20.655Z,7.10
2019-02-21T18:33:52.921Z,7.20
2019-02-21T18:36:24.143Z,7.20
2019-02-21T18:38:55.508Z,7.20
2019-02-21T18:41:26.851Z,7.20
2019-02-21T18:43:58.164Z,7.20
2019-02-21T18:46:29.583Z,7.20
2019-02-21T18:49:00.997Z,7.30
2019-02-21T18:51:32.400Z,7.30
2019-02-21T18:54:03.709Z,7.30
2019-02-21T18:56:35.095Z,7.30
2019-02-21T18:59:06.349Z,7.40
2019-02-21T19:01:37.658Z,7.40
2019-02-21T19:04:08.910Z,7.40
2019-02-21T19:06:40.183Z,7.50
2019-02-21T19:09:11.882Z,7.50
2019-02-21T19:11:43.305Z,7.50
2019-02-21T19:14:14.792Z,7.50
2019-02-21T19:16:46.148Z,7.50
2019-02-21T19:19:17.390Z,7.50
2019-02-21T19:21:48.879Z,7.50
2019-02-21T19:24:20.158Z,7.50
2019-02-21T19:26:51.538Z,7.50
2019-02-21T19:29:22.807Z,7.50
2019-02-21T19:32:02.033Z,7.60
2019-02-21T19:34:33.350Z,7.60
2019-02-21T19:37:04.807Z,7.60
2019-02-21T19:39:36.289Z,7.50
2019-02-21T19:42:11.438Z,7.50
2019-02-21T19:44:42.804Z,7.50
2019-02-21T19:47:14.067Z,7.50
2019-02-21T19:49:45.316Z,7.40
2019-02-21T19:52:16.502Z,7.40
2019-02-21T19:54:50.359Z,7.40
2019-02-21T19:57:21.591Z,7.40
2019-02-21T19:59:52.831Z,7.40
2019-02-21T20:02:24.177Z,7.40
2019-02-21T20:04:55.396Z,7.40
2019-02-21T20:07:26.725Z,7.40
2019-02-21T20:09:58.090Z,7.40
2019-02-21T20:12:29.331Z,7.40
2019-02-21T20:15:00.581Z,7.50
2019-02-21T20:17:34.384Z,7.40
2019-02-21T20:20:06.079Z,7.50
2019-02-21T20:22:37.319Z,7.50
2019-02-21T20:25:20.093Z,7.50
2019-02-21T20:28:00.720Z,7.50
2019-02-21T20:30:42.266Z,7.50
2019-02-21T20:33:13.786Z,7.60
2019-02-21T20:35:45.052Z,7.60
2019-02-21T20:38:16.263Z,7.60
2019-02-21T20:40:47.494Z,7.60
2019-02-21T20:43:18.687Z,7.60
2019-02-21T20:45:53.405Z,7.60
2019-02-21T20:48:22.859Z,7.60
2019-02-21T20:50:57.184Z,7.60
2019-02-21T20:53:27.509Z,7.60
2019-02-21T20:55:59.042Z,7.50
2019-02-21T20:58:30.319Z,7.50
2019-02-21T21:01:03.325Z,7.60
2019-02-21T21:03:35.286Z,7.50
2019-02-21T21:06:06.834Z,7.50
2019-02-21T21:08:43.187Z,7.40
2019-02-21T21:11:11.118Z,7.40
2019-02-21T21:13:44.173Z,7.40
2019-02-21T21:16:15.296Z,7.40
2019-02-21T21:18:46.546Z,7.40
2019-02-21T21:21:20.740Z,7.40
2019-02-21T21:23:51.993Z,7.40
2019-02-21T21:26:23.766Z,7.40
2019-02-21T21:28:55.031Z,7.40
2019-02-21T21:31:26.334Z,7.40
2019-02-21T21:33:57.603Z,7.40
2019-02-21T21:36:29.840Z,7.40
2019-02-21T21:39:01.374Z,7.40
2019-02-21T21:41:34.143Z,7.40
2019-02-21T21:44:05.536Z,7.40
2019-02-21T21:46:36.789Z,7.30
2019-02-21T21:49:08.007Z,7.30
2019-02-21T21:51:39.264Z,7.40
2019-02-21T21:54:10.576Z,7.30
2019-02-21T21:56:41.833Z,7.40
2019-02-21T21:59:14.445Z,7.40
2019-02-21T22:01:47.596Z,7.40
2019-02-21T22:04:20.963Z,7.40
2019-02-21T22:06:51.599Z,7.30
2019-02-21T22:09:22.934Z,7.30
2019-02-21T22:11:54.199Z,7.30
2019-02-21T22:14:25.479Z,7.30
2019-02-21T22:16:57.072Z,7.40
2019-02-21T22:19:28.628Z,7.30
2019-02-21T22:22:00.238Z,7.30
2019-02-21T22:24:31.784Z,7.30
2019-02-21T22:27:03.723Z,7.30
2019-02-21T22:29:35.579Z,7.30
2019-02-21T22:32:07.121Z,7.30
2019-02-21T22:34:38.647Z,7.30
2019-02-21T22:37:10.434Z,7.40
2019-02-21T22:39:42.281Z,7.40
2019-02-21T22:42:13.904Z,7.40
2019-02-21T22:44:45.132Z,7.40
2019-02-21T22:47:16.624Z,7.40
2019-02-21T22:49:48.416Z,7.40
2019-02-21T22:52:19.858Z,7.40
2019-02-21T22:54:51.178Z,7.40
2019-02-21T22:57:22.511Z,7.40
2019-02-21T22:59:53.975Z,7.40
2019-02-21T23:02:25.970Z,7.50
2019-02-21T23:05:35.628Z,7.50
2019-02-21T23:08:46.190Z,7.50
2019-02-21T23:11:17.554Z,7.50
2019-02-21T23:13:49.525Z,7.50
2019-02-21T23:16:21.060Z,7.50
2019-02-21T23:18:52.367Z,7.50
2019-02-21T23:21:23.856Z,7.50
2019-02-21T23:23:55.293Z,7.50
2019-02-21T23:26:28.630Z,7.50
2019-02-21T23:29:00.662Z,7.50
2019-02-21T23:31:32.046Z,7.50
2019-02-21T23:34:03.372Z,7.50
2019-02-21T23:36:34.612Z,7.50
2019-02-21T23:39:06.769Z,7.50
2019-02-21T23:54:09.597Z,7.60
2019-02-21T23:56:40.812Z,7.60
2019-02-21T23:59:11.985Z,7.60
